sensor_id;sensor_type;location;lat;lon;timestamp;pressure;altitude;pressure_sealevel;temperature;humidity
12471;BME280;36499;46.484;13.832;2023-02-19T00:01:28;93631.41;;;4.23;79.27
12471;BME280;36499;46.484;13.832;2023-02-19T00:03:59;93637.06;;;4.26;79.49
12471;BME280;36499;46.484;13.832;2023-02-19T00:06:28;93634.97;;;4.22;79.36
12471;BME280;36499;46.484;13.832;2023-02-19T00:08:56;93622.72;;;4.16;79.98
12471;BME280;36499;46.484;13.832;2023-02-19T00:11:26;93629.81;;;4.06;79.55
12471;BME280;36499;46.484;13.832;2023-02-19T00:13:55;93628.19;;;4.05;80.15
12471;BME280;36499;46.484;13.832;2023-02-19T00:16:25;93637.53;;;3.98;81.23
12471;BME280;36499;46.484;13.832;2023-02-19T00:18:53;93620.78;;;4.02;81.07
12471;BME280;36499;46.484;13.832;2023-02-19T00:21:24;93624.97;;;4.03;81.44
12471;BME280;36499;46.484;13.832;2023-02-19T00:23:53;93625.94;;;4.10;80.92
12471;BME280;36499;46.484;13.832;2023-02-19T00:26:21;93622.56;;;4.09;79.53
12471;BME280;36499;46.484;13.832;2023-02-19T00:28:50;93619.31;;;4.07;80.60
12471;BME280;36499;46.484;13.832;2023-02-19T00:31:21;93621.59;;;4.02;80.81
12471;BME280;36499;46.484;13.832;2023-02-19T00:33:51;93621.09;;;4.07;80.96
12471;BME280;36499;46.484;13.832;2023-02-19T00:36:19;93620.78;;;4.10;80.91
12471;BME280;36499;46.484;13.832;2023-02-19T00:38:49;93616.09;;;4.13;80.56
12471;BME280;36499;46.484;13.832;2023-02-19T00:41:17;93620.31;;;4.14;80.83
12471;BME280;36499;46.484;13.832;2023-02-19T00:43:48;93614.81;;;4.17;80.66
12471;BME280;36499;46.484;13.832;2023-02-19T00:46:17;93622.09;;;4.22;80.73
12471;BME280;36499;46.484;13.832;2023-02-19T00:48:46;93623.03;;;4.21;80.83
12471;BME280;36499;46.484;13.832;2023-02-19T00:51:14;93620.78;;;4.18;80.27
12471;BME280;36499;46.484;13.832;2023-02-19T00:53:41;93618.69;;;4.21;80.48
12471;BME280;36499;46.484;13.832;2023-02-19T00:56:10;93615.94;;;4.23;80.90
12471;BME280;36499;46.484;13.832;2023-02-19T00:58:38;93618.38;;;4.24;80.40
12471;BME280;36499;46.484;13.832;2023-02-19T01:01:06;93614.00;;;4.25;80.16
12471;BME280;36499;46.484;13.832;2023-02-19T01:03:34;93614.00;;;4.25;80.95
12471;BME280;36499;46.484;13.832;2023-02-19T01:06:02;93615.63;;;4.26;80.25
12471;BME280;36499;46.484;13.832;2023-02-19T01:08:30;93613.84;;;4.26;81.35
12471;BME280;36499;46.484;13.832;2023-02-19T01:10:58;93616.59;;;4.25;81.04
12471;BME280;36499;46.484;13.832;2023-02-19T01:13:28;93608.84;;;4.25;81.12
12471;BME280;36499;46.484;13.832;2023-02-19T01:16:02;93599.97;;;4.27;80.85
12471;BME280;36499;46.484;13.832;2023-02-19T01:18:30;93610.94;;;4.29;80.59
12471;BME280;36499;46.484;13.832;2023-02-19T01:20:58;93590.78;;;4.33;79.87
12471;BME280;36499;46.484;13.832;2023-02-19T01:23:25;93589.78;;;4.42;79.61
12471;BME280;36499;46.484;13.832;2023-02-19T01:25:52;93584.63;;;4.42;78.84
12471;BME280;36499;46.484;13.832;2023-02-19T01:28:20;93581.09;;;4.43;78.78
12471;BME280;36499;46.484;13.832;2023-02-19T01:30:48;93581.25;;;4.42;78.90
12471;BME280;36499;46.484;13.832;2023-02-19T01:33:15;93579.00;;;4.39;79.69
12471;BME280;36499;46.484;13.832;2023-02-19T01:35:43;93577.22;;;4.39;79.13
12471;BME280;36499;46.484;13.832;2023-02-19T01:38:10;93579.16;;;4.37;79.81
12471;BME280;36499;46.484;13.832;2023-02-19T01:40:37;93567.84;;;4.38;79.22
12471;BME280;36499;46.484;13.832;2023-02-19T01:43:11;93574.78;;;4.38;80.38
12471;BME280;36499;46.484;13.832;2023-02-19T01:45:43;93575.59;;;4.38;79.56
12471;BME280;36499;46.484;13.832;2023-02-19T01:48:15;93573.03;;;4.38;80.23
12471;BME280;36499;46.484;13.832;2023-02-19T01:50:49;93576.59;;;4.37;79.95
12471;BME280;36499;46.484;13.832;2023-02-19T01:53:21;93579.31;;;4.35;79.43
12471;BME280;36499;46.484;13.832;2023-02-19T01:55:55;93574.16;;;4.35;80.16
12471;BME280;36499;46.484;13.832;2023-02-19T01:58:28;93575.13;;;4.34;80.75
12471;BME280;36499;46.484;13.832;2023-02-19T02:00:58;93570.13;;;4.33;80.07
12471;BME280;36499;46.484;13.832;2023-02-19T02:03:28;93578.19;;;4.38;80.39
12471;BME280;36499;46.484;13.832;2023-02-19T02:06:00;93576.59;;;4.37;80.52
12471;BME280;36499;46.484;13.832;2023-02-19T02:08:30;93576.25;;;4.40;80.43
12471;BME280;36499;46.484;13.832;2023-02-19T02:11:15;93568.19;;;4.43;80.10
12471;BME280;36499;46.484;13.832;2023-02-19T02:13:42;93568.66;;;4.47;79.96
12471;BME280;36499;46.484;13.832;2023-02-19T02:16:22;93569.63;;;4.46;79.42
12471;BME280;36499;46.484;13.832;2023-02-19T02:19:01;93561.88;;;4.38;79.87
12471;BME280;36499;46.484;13.832;2023-02-19T02:21:57;93562.69;;;4.38;79.88
12471;BME280;36499;46.484;13.832;2023-02-19T02:24:50;93559.97;;;4.40;80.16
12471;BME280;36499;46.484;13.832;2023-02-19T02:28:01;93554.81;;;4.40;80.08
12471;BME280;36499;46.484;13.832;2023-02-19T02:30:41;93564.31;;;4.39;80.33
12471;BME280;36499;46.484;13.832;2023-02-19T02:33:20;93563.50;;;4.39;80.28
12471;BME280;36499;46.484;13.832;2023-02-19T02:35:57;93560.91;;;4.47;79.73
12471;BME280;36499;46.484;13.832;2023-02-19T02:38:29;93563.34;;;4.48;80.17
12471;BME280;36499;46.484;13.832;2023-02-19T02:40:58;93554.59;;;4.49;80.36
12471;BME280;36499;46.484;13.832;2023-02-19T02:43:25;93557.03;;;4.51;79.53
12471;BME280;36499;46.484;13.832;2023-02-19T02:45:54;93554.47;;;4.51;79.91
12471;BME280;36499;46.484;13.832;2023-02-19T02:48:29;93544.63;;;4.46;79.43
12471;BME280;36499;46.484;13.832;2023-02-19T02:51:03;93544.63;;;4.46;79.99
12471;BME280;36499;46.484;13.832;2023-02-19T02:53:38;93539.63;;;4.45;80.22
12471;BME280;36499;46.484;13.832;2023-02-19T02:56:25;93532.69;;;4.45;80.05
12471;BME280;36499;46.484;13.832;2023-02-19T02:58:55;93530.28;;;4.44;79.24
12471;BME280;36499;46.484;13.832;2023-02-19T03:01:31;93538.66;;;4.46;79.30
12471;BME280;36499;46.484;13.832;2023-02-19T03:04:24;93531.91;;;4.45;79.27
12471;BME280;36499;46.484;13.832;2023-02-19T03:06:53;93523.34;;;4.44;80.24
12471;BME280;36499;46.484;13.832;2023-02-19T03:09:27;93514.59;;;4.45;80.26
12471;BME280;36499;46.484;13.832;2023-02-19T03:12:02;93515.59;;;4.44;80.23
12471;BME280;36499;46.484;13.832;2023-02-19T03:14:55;93516.56;;;4.43;80.09
12471;BME280;36499;46.484;13.832;2023-02-19T03:17:50;93515.94;;;4.41;80.30
12471;BME280;36499;46.484;13.832;2023-02-19T03:20:35;93505.28;;;4.44;80.38
12471;BME280;36499;46.484;13.832;2023-02-19T03:23:05;93503.50;;;4.45;80.24
12471;BME280;36499;46.484;13.832;2023-02-19T03:25:36;93497.53;;;4.44;80.07
12471;BME280;36499;46.484;13.832;2023-02-19T03:28:27;93496.06;;;4.42;80.29
12471;BME280;36499;46.484;13.832;2023-02-19T03:31:13;93489.78;;;4.44;80.23
12471;BME280;36499;46.484;13.832;2023-02-19T03:33:48;93496.25;;;4.40;80.22
12471;BME280;36499;46.484;13.832;2023-02-19T03:36:19;93494.63;;;4.39;79.84
12471;BME280;36499;46.484;13.832;2023-02-19T03:38:56;93484.47;;;4.38;80.59
12471;BME280;36499;46.484;13.832;2023-02-19T03:41:32;93493.00;;;4.38;80.58
12471;BME280;36499;46.484;13.832;2023-02-19T03:44:11;93487.03;;;4.38;81.23
12471;BME280;36499;46.484;13.832;2023-02-19T03:46:55;93488.97;;;4.44;80.63
12471;BME280;36499;46.484;13.832;2023-02-19T03:49:37;93475.59;;;4.48;80.54
12471;BME280;36499;46.484;13.832;2023-02-19T03:52:16;93477.97;;;4.50;80.05
12471;BME280;36499;46.484;13.832;2023-02-19T03:54:53;93487.19;;;4.52;80.04
12471;BME280;36499;46.484;13.832;2023-02-19T03:57:35;93483.47;;;4.47;80.74
12471;BME280;36499;46.484;13.832;2023-02-19T04:00:10;93492.53;;;4.43;80.36
12471;BME280;36499;46.484;13.832;2023-02-19T04:02:46;93494.28;;;4.42;80.64
12471;BME280;36499;46.484;13.832;2023-02-19T04:05:21;93491.38;;;4.45;80.07
12471;BME280;36499;46.484;13.832;2023-02-19T04:07:52;93492.03;;;4.47;80.17
12471;BME280;36499;46.484;13.832;2023-02-19T04:10:20;93486.06;;;4.47;79.85
12471;BME280;36499;46.484;13.832;2023-02-19T04:12:54;93495.56;;;4.54;80.09
12471;BME280;36499;46.484;13.832;2023-02-19T04:15:29;93490.88;;;4.58;79.47
12471;BME280;36499;46.484;13.832;2023-02-19T04:18:03;93489.59;;;4.54;79.36
12471;BME280;36499;46.484;13.832;2023-02-19T04:20:41;93500.38;;;4.57;80.10
12471;BME280;36499;46.484;13.832;2023-02-19T04:23:10;93494.25;;;4.58;80.26
12471;BME280;36499;46.484;13.832;2023-02-19T04:25:42;93493.44;;;4.58;79.75
12471;BME280;36499;46.484;13.832;2023-02-19T04:31:51;93493.63;;;4.56;79.26
12471;BME280;36499;46.484;13.832;2023-02-19T04:34:18;93489.44;;;4.55;79.53
12471;BME280;36499;46.484;13.832;2023-02-19T04:36:47;93493.63;;;4.56;80.16
12471;BME280;36499;46.484;13.832;2023-02-19T04:39:14;93487.00;;;4.54;79.13
12471;BME280;36499;46.484;13.832;2023-02-19T04:41:41;93474.91;;;4.54;79.41
12471;BME280;36499;46.484;13.832;2023-02-19T04:44:08;93472.31;;;4.54;80.12
12471;BME280;36499;46.484;13.832;2023-02-19T04:46:35;93472.16;;;4.56;79.93
12471;BME280;36499;46.484;13.832;2023-02-19T04:49:02;93471.34;;;4.55;80.00
12471;BME280;36499;46.484;13.832;2023-02-19T04:51:29;93466.81;;;4.57;79.61
12471;BME280;36499;46.484;13.832;2023-02-19T04:53:57;93471.34;;;4.55;79.72
12471;BME280;36499;46.484;13.832;2023-02-19T04:56:24;93465.38;;;4.55;79.59
12471;BME280;36499;46.484;13.832;2023-02-19T04:58:51;93472.06;;;4.41;80.52
12471;BME280;36499;46.484;13.832;2023-02-19T05:01:18;93462.97;;;4.45;80.52
12471;BME280;36499;46.484;13.832;2023-02-19T05:03:45;93462.69;;;4.48;79.92
12471;BME280;36499;46.484;13.832;2023-02-19T05:06:13;93461.53;;;4.51;79.61
12471;BME280;36499;46.484;13.832;2023-02-19T05:08:41;93460.56;;;4.52;80.47
12471;BME280;36499;46.484;13.832;2023-02-19T05:11:11;93454.59;;;4.51;80.59
12471;BME280;36499;46.484;13.832;2023-02-19T05:13:39;93458.78;;;4.52;80.39
12471;BME280;36499;46.484;13.832;2023-02-19T05:16:10;93455.75;;;4.49;79.53
12471;BME280;36499;46.484;13.832;2023-02-19T05:18:41;93454.94;;;4.48;79.95
12471;BME280;36499;46.484;13.832;2023-02-19T05:21:10;93458.78;;;4.52;79.88
12471;BME280;36499;46.484;13.832;2023-02-19T05:23:37;93455.75;;;4.49;79.67
12471;BME280;36499;46.484;13.832;2023-02-19T05:26:05;93454.94;;;4.48;80.06
12471;BME280;36499;46.484;13.832;2023-02-19T05:28:35;93450.72;;;4.47;79.41
12471;BME280;36499;46.484;13.832;2023-02-19T05:31:06;93449.78;;;4.48;79.96
12471;BME280;36499;46.484;13.832;2023-02-19T05:33:34;93447.19;;;4.48;79.93
12471;BME280;36499;46.484;13.832;2023-02-19T05:36:07;93451.34;;;4.49;79.84
12471;BME280;36499;46.484;13.832;2023-02-19T05:38:35;93444.59;;;4.48;80.40
12471;BME280;36499;46.484;13.832;2023-02-19T05:41:11;93450.88;;;4.46;79.93
12471;BME280;36499;46.484;13.832;2023-02-19T05:43:42;93450.06;;;4.45;80.10
12471;BME280;36499;46.484;13.832;2023-02-19T05:46:11;93442.03;;;4.48;80.62
12471;BME280;36499;46.484;13.832;2023-02-19T05:48:39;93440.06;;;4.50;80.35
12471;BME280;36499;46.484;13.832;2023-02-19T05:51:09;93447.31;;;4.55;79.60
12471;BME280;36499;46.484;13.832;2023-02-19T05:53:37;93442.31;;;4.53;80.40
12471;BME280;36499;46.484;13.832;2023-02-19T05:56:23;93443.47;;;4.51;80.00
12471;BME280;36499;46.484;13.832;2023-02-19T05:58:54;93446.19;;;4.49;79.65
12471;BME280;36499;46.484;13.832;2023-02-19T06:01:24;93444.41;;;4.50;79.45
12471;BME280;36499;46.484;13.832;2023-02-19T06:03:52;93437.69;;;4.49;79.50
12471;BME280;36499;46.484;13.832;2023-02-19T06:06:19;93435.56;;;4.52;79.34
12471;BME280;36499;46.484;13.832;2023-02-19T06:08:48;93438.13;;;4.52;79.50
12471;BME280;36499;46.484;13.832;2023-02-19T06:11:15;93446.19;;;4.49;79.29
12471;BME280;36499;46.484;13.832;2023-02-19T06:13:43;93446.19;;;4.49;79.21
12471;BME280;36499;46.484;13.832;2023-02-19T06:16:11;93444.13;;;4.45;80.13
12471;BME280;36499;46.484;13.832;2023-02-19T06:18:38;93440.06;;;4.50;79.79
12471;BME280;36499;46.484;13.832;2023-02-19T06:21:08;93448.97;;;4.48;79.45
12471;BME280;36499;46.484;13.832;2023-02-19T06:23:36;93430.41;;;4.52;79.29
12471;BME280;36499;46.484;13.832;2023-02-19T06:26:07;93427.63;;;4.54;79.37
12471;BME280;36499;46.484;13.832;2023-02-19T06:28:35;93430.72;;;4.49;78.99
12471;BME280;36499;46.484;13.832;2023-02-19T06:31:02;93441.22;;;4.48;79.29
12471;BME280;36499;46.484;13.832;2023-02-19T06:33:32;93438.13;;;4.52;80.27
12471;BME280;36499;46.484;13.832;2023-02-19T06:36:01;93436.84;;;4.56;79.93
12471;BME280;36499;46.484;13.832;2023-02-19T06:38:30;93445.19;;;4.58;79.40
12471;BME280;36499;46.484;13.832;2023-02-19T06:41:00;93448.75;;;4.57;79.40
12471;BME280;36499;46.484;13.832;2023-02-19T06:43:27;93453.59;;;4.60;79.75
12471;BME280;36499;46.484;13.832;2023-02-19T06:45:57;93466.97;;;4.64;79.73
12471;BME280;36499;46.484;13.832;2023-02-19T06:48:24;93459.22;;;4.64;79.41
12471;BME280;36499;46.484;13.832;2023-02-19T06:50:53;93464.88;;;4.67;79.34
12471;BME280;36499;46.484;13.832;2023-02-19T06:53:21;93477.25;;;4.72;79.68
12471;BME280;36499;46.484;13.832;2023-02-19T06:55:55;93480.00;;;4.70;80.24
12471;BME280;36499;46.484;13.832;2023-02-19T06:58:23;93481.28;;;4.74;79.76
12471;BME280;36499;46.484;13.832;2023-02-19T07:00:50;93486.47;;;4.74;79.37
12471;BME280;36499;46.484;13.832;2023-02-19T07:03:18;93487.88;;;4.77;79.70
12471;BME280;36499;46.484;13.832;2023-02-19T07:05:45;93490.94;;;4.80;79.12
12471;BME280;36499;46.484;13.832;2023-02-19T07:08:13;93494.47;;;4.79;80.22
12471;BME280;36499;46.484;13.832;2023-02-19T07:10:42;93491.75;;;4.81;79.76
12471;BME280;36499;46.484;13.832;2023-02-19T07:13:10;93505.13;;;4.84;79.47
12471;BME280;36499;46.484;13.832;2023-02-19T07:15:37;93505.78;;;4.87;79.33
12471;BME280;36499;46.484;13.832;2023-02-19T07:18:04;93509.97;;;4.88;79.59
12471;BME280;36499;46.484;13.832;2023-02-19T07:20:35;93508.66;;;4.92;79.68
12471;BME280;36499;46.484;13.832;2023-02-19T07:23:02;93508.50;;;4.93;80.07
12471;BME280;36499;46.484;13.832;2023-02-19T07:25:31;93514.47;;;4.94;79.40
12471;BME280;36499;46.484;13.832;2023-02-19T07:27:58;93514.75;;;4.99;79.83
12471;BME280;36499;46.484;13.832;2023-02-19T07:30:25;93517.97;;;5.01;79.72
12471;BME280;36499;46.484;13.832;2023-02-19T07:32:52;93524.13;;;5.00;79.20
12471;BME280;36499;46.484;13.832;2023-02-19T07:35:19;93522.69;;;4.97;80.06
12471;BME280;36499;46.484;13.832;2023-02-19T07:37:46;93534.75;;;5.05;79.92
12471;BME280;36499;46.484;13.832;2023-02-19T07:40:13;93539.13;;;5.04;80.01
12471;BME280;36499;46.484;13.832;2023-02-19T07:42:41;93537.63;;;5.10;79.92
12471;BME280;36499;46.484;13.832;2023-02-19T07:45:09;93548.94;;;5.17;80.00
12471;BME280;36499;46.484;13.832;2023-02-19T07:47:36;93544.03;;;5.22;79.84
12471;BME280;36499;46.484;13.832;2023-02-19T07:50:03;93545.31;;;5.26;79.67
12471;BME280;36499;46.484;13.832;2023-02-19T07:52:32;93536.44;;;5.28;79.64
12471;BME280;36499;46.484;13.832;2023-02-19T07:54:59;93540.53;;;5.15;80.14
12471;BME280;36499;46.484;13.832;2023-02-19T07:57:27;93532.25;;;5.19;80.50
12471;BME280;36499;46.484;13.832;2023-02-19T07:59:57;93525.13;;;5.21;79.94
12471;BME280;36499;46.484;13.832;2023-02-19T08:02:24;93529.25;;;5.39;79.20
12471;BME280;36499;46.484;13.832;2023-02-19T08:05:09;93531.34;;;5.43;78.67
12471;BME280;36499;46.484;13.832;2023-02-19T08:07:36;93517.22;;;5.54;78.50
12471;BME280;36499;46.484;13.832;2023-02-19T08:10:04;93517.16;;;5.62;78.44
12471;BME280;36499;46.484;13.832;2023-02-19T08:12:56;93517.72;;;5.72;78.65
12471;BME280;36499;46.484;13.832;2023-02-19T08:15:43;93518.38;;;5.74;77.95
12471;BME280;36499;46.484;13.832;2023-02-19T08:18:11;93516.50;;;5.82;77.53
12471;BME280;36499;46.484;13.832;2023-02-19T08:20:39;93519.38;;;5.96;77.35
12471;BME280;36499;46.484;13.832;2023-02-19T08:23:07;93511.53;;;6.04;76.67
12471;BME280;36499;46.484;13.832;2023-02-19T08:25:34;93526.72;;;6.07;76.18
12471;BME280;36499;46.484;13.832;2023-02-19T08:28:02;93519.56;;;6.09;76.09
12471;BME280;36499;46.484;13.832;2023-02-19T08:30:32;93518.69;;;6.16;76.43
12471;BME280;36499;46.484;13.832;2023-02-19T08:33:01;93516.22;;;6.23;76.20
12471;BME280;36499;46.484;13.832;2023-02-19T08:35:28;93509.97;;;6.32;75.56
12471;BME280;36499;46.484;13.832;2023-02-19T08:37:57;93504.19;;;6.45;75.54
12471;BME280;36499;46.484;13.832;2023-02-19T08:40:25;93495.38;;;6.54;75.30
12471;BME280;36499;46.484;13.832;2023-02-19T08:42:52;93499.28;;;6.64;73.93
12471;BME280;36499;46.484;13.832;2023-02-19T08:45:20;93502.50;;;6.66;73.58
12471;BME280;36499;46.484;13.832;2023-02-19T08:47:47;93492.13;;;6.66;73.48
12471;BME280;36499;46.484;13.832;2023-02-19T08:50:16;93496.19;;;6.69;74.23
12471;BME280;36499;46.484;13.832;2023-02-19T08:52:43;93483.13;;;6.77;74.04
12471;BME280;36499;46.484;13.832;2023-02-19T08:55:10;93483.22;;;6.84;74.03
12471;BME280;36499;46.484;13.832;2023-02-19T08:57:37;93484.91;;;6.91;74.04
12471;BME280;36499;46.484;13.832;2023-02-19T09:00:06;93473.88;;;7.04;73.92
12471;BME280;36499;46.484;13.832;2023-02-19T09:02:34;93471.53;;;7.09;73.24
12471;BME280;36499;46.484;13.832;2023-02-19T09:05:02;93470.69;;;7.23;73.40
12471;BME280;36499;46.484;13.832;2023-02-19T09:07:31;93480.00;;;7.32;73.11
12471;BME280;36499;46.484;13.832;2023-02-19T09:10:00;93476.31;;;7.41;72.23
12471;BME280;36499;46.484;13.832;2023-02-19T09:12:27;93470.00;;;7.50;71.50
12471;BME280;36499;46.484;13.832;2023-02-19T09:14:54;93472.41;;;7.52;71.27
12471;BME280;36499;46.484;13.832;2023-02-19T09:17:21;93469.63;;;7.53;71.00
12471;BME280;36499;46.484;13.832;2023-02-19T09:19:48;93465.13;;;7.62;71.30
12471;BME280;36499;46.484;13.832;2023-02-19T09:22:15;93470.31;;;7.62;71.12
12471;BME280;36499;46.484;13.832;2023-02-19T09:24:43;93469.22;;;7.71;70.64
12471;BME280;36499;46.484;13.832;2023-02-19T09:27:15;93467.66;;;7.77;70.40
12471;BME280;36499;46.484;13.832;2023-02-19T09:29:42;93463.28;;;7.77;70.30
12471;BME280;36499;46.484;13.832;2023-02-19T09:32:10;93471.13;;;7.84;70.59
12471;BME280;36499;46.484;13.832;2023-02-19T09:34:38;93471.22;;;7.97;70.61
12471;BME280;36499;46.484;13.832;2023-02-19T09:37:05;93479.91;;;8.10;70.28
12471;BME280;36499;46.484;13.832;2023-02-19T09:39:33;93480.41;;;8.20;70.23
12471;BME280;36499;46.484;13.832;2023-02-19T09:42:11;93473.59;;;8.41;69.28
12471;BME280;36499;46.484;13.832;2023-02-19T09:44:44;93465.16;;;8.66;68.27
12471;BME280;36499;46.484;13.832;2023-02-19T09:47:18;93470.66;;;8.85;67.26
12471;BME280;36499;46.484;13.832;2023-02-19T09:49:48;93461.56;;;9.08;65.75
12471;BME280;36499;46.484;13.832;2023-02-19T09:52:24;93461.84;;;9.27;65.33
12471;BME280;36499;46.484;13.832;2023-02-19T09:54:56;93468.28;;;9.44;64.86
12471;BME280;36499;46.484;13.832;2023-02-19T09:57:29;93473.88;;;9.34;64.20
12471;BME280;36499;46.484;13.832;2023-02-19T10:00:03;93459.34;;;9.66;64.38
12471;BME280;36499;46.484;13.832;2023-02-19T10:02:31;93455.94;;;9.79;64.19
12471;BME280;36499;46.484;13.832;2023-02-19T10:04:59;93460.56;;;9.90;63.43
12471;BME280;36499;46.484;13.832;2023-02-19T10:07:36;93461.75;;;9.94;62.96
12471;BME280;36499;46.484;13.832;2023-02-19T10:10:29;93459.00;;;10.15;62.22
12471;BME280;36499;46.484;13.832;2023-02-19T10:13:14;93451.78;;;10.17;61.91
12471;BME280;36499;46.484;13.832;2023-02-19T10:15:47;93447.97;;;10.46;61.34
12471;BME280;36499;46.484;13.832;2023-02-19T10:18:20;93447.75;;;10.28;60.46
12471;BME280;36499;46.484;13.832;2023-02-19T10:20:50;93440.94;;;10.46;60.67
12471;BME280;36499;46.484;13.832;2023-02-19T10:23:19;93438.91;;;10.55;60.10
12471;BME280;36499;46.484;13.832;2023-02-19T10:25:52;93440.97;;;10.33;59.43
12471;BME280;36499;46.484;13.832;2023-02-19T10:28:27;93441.53;;;10.48;59.90
12471;BME280;36499;46.484;13.832;2023-02-19T10:30:57;93437.72;;;10.64;59.49
12471;BME280;36499;46.484;13.832;2023-02-19T10:33:26;93439.47;;;10.77;59.82
12471;BME280;36499;46.484;13.832;2023-02-19T10:35:56;93439.25;;;10.85;58.08
12471;BME280;36499;46.484;13.832;2023-02-19T10:38:27;93434.56;;;11.00;58.10
12471;BME280;36499;46.484;13.832;2023-02-19T10:41:03;93443.97;;;11.14;57.90
12471;BME280;36499;46.484;13.832;2023-02-19T10:43:36;93442.25;;;11.39;57.16
12471;BME280;36499;46.484;13.832;2023-02-19T10:46:14;93437.53;;;11.54;56.60
12471;BME280;36499;46.484;13.832;2023-02-19T10:48:49;93427.63;;;11.70;56.28
12471;BME280;36499;46.484;13.832;2023-02-19T10:51:18;93431.00;;;11.77;55.39
12471;BME280;36499;46.484;13.832;2023-02-19T10:53:49;93428.81;;;11.74;56.18
12471;BME280;36499;46.484;13.832;2023-02-19T10:56:24;93431.00;;;11.77;55.90
12471;BME280;36499;46.484;13.832;2023-02-19T10:58:52;93435.66;;;11.75;55.26
12471;BME280;36499;46.484;13.832;2023-02-19T11:01:22;93428.81;;;11.74;55.73
12471;BME280;36499;46.484;13.832;2023-02-19T11:03:52;93434.25;;;11.66;56.05
12471;BME280;36499;46.484;13.832;2023-02-19T11:06:24;93435.34;;;11.51;55.73
12471;BME280;36499;46.484;13.832;2023-02-19T11:08:55;93435.44;;;11.70;55.52
12471;BME280;36499;46.484;13.832;2023-02-19T11:11:28;93430.75;;;11.85;54.83
12471;BME280;36499;46.484;13.832;2023-02-19T11:14:03;93423.03;;;11.72;55.09
12471;BME280;36499;46.484;13.832;2023-02-19T11:16:54;93424.41;;;11.74;55.18
12471;BME280;36499;46.484;13.832;2023-02-19T11:19:28;93414.19;;;11.66;55.77
12471;BME280;36499;46.484;13.832;2023-02-19T11:21:59;93415.50;;;11.82;55.49
12471;BME280;36499;46.484;13.832;2023-02-19T11:24:33;93409.84;;;11.85;55.29
12471;BME280;36499;46.484;13.832;2023-02-19T11:27:04;93405.94;;;12.00;54.43
12471;BME280;36499;46.484;13.832;2023-02-19T11:29:34;93412.16;;;11.75;55.44
12471;BME280;36499;46.484;13.832;2023-02-19T11:32:25;93410.59;;;11.92;54.80
12471;BME280;36499;46.484;13.832;2023-02-19T11:35:12;93398.53;;;11.91;54.87
12471;BME280;36499;46.484;13.832;2023-02-19T11:37:57;93403.78;;;11.91;55.07
12471;BME280;36499;46.484;13.832;2023-02-19T11:40:39;93400.66;;;11.82;55.70
12471;BME280;36499;46.484;13.832;2023-02-19T11:43:23;93403.50;;;11.99;55.40
12471;BME280;36499;46.484;13.832;2023-02-19T11:46:01;93392.38;;;12.10;54.42
12471;BME280;36499;46.484;13.832;2023-02-19T11:48:51;93389.91;;;12.15;54.26
12471;BME280;36499;46.484;13.832;2023-02-19T11:52:01;93386.78;;;11.82;54.55
12471;BME280;36499;46.484;13.832;2023-02-19T11:54:46;93380.91;;;12.11;54.15
12471;BME280;36499;46.484;13.832;2023-02-19T11:57:34;93376.59;;;12.41;53.88
12471;BME280;36499;46.484;13.832;2023-02-19T12:00:22;93371.72;;;12.27;53.48
12471;BME280;36499;46.484;13.832;2023-02-19T12:03:23;93382.56;;;11.81;
12471;BME280;36499;46.484;13.832;2023-02-19T12:06:18;93375.97;;;12.21;54.26
12471;BME280;36499;46.484;13.832;2023-02-19T12:09:31;93362.44;;;12.31;53.36
12471;BME280;36499;46.484;13.832;2023-02-19T12:12:27;93364.66;;;12.09;52.98
12471;BME280;36499;46.484;13.832;2023-02-19T12:15:26;93365.56;;;12.39;53.45
12471;BME280;36499;46.484;13.832;2023-02-19T12:18:28;93359.91;;;12.42;53.03
12471;BME280;36499;46.484;13.832;2023-02-19T12:21:18;93349.81;;;12.64;52.58
12471;BME280;36499;46.484;13.832;2023-02-19T12:24:12;93345.81;;;12.80;53.36
12471;BME280;36499;46.484;13.832;2023-02-19T12:26:52;93343.31;;;13.03;52.08
12471;BME280;36499;46.484;13.832;2023-02-19T12:29:39;93353.06;;;13.14;51.59
12471;BME280;36499;46.484;13.832;2023-02-19T12:32:48;93341.97;;;13.30;51.26
12471;BME280;36499;46.484;13.832;2023-02-19T12:35:41;93344.84;;;13.40;50.70
12471;BME280;36499;46.484;13.832;2023-02-19T12:38:21;93332.03;;;13.21;51.05
12471;BME280;36499;46.484;13.832;2023-02-19T12:41:17;93331.94;;;12.79;51.30
12471;BME280;36499;46.484;13.832;2023-02-19T12:43:52;93331.38;;;13.07;51.29
12471;BME280;36499;46.484;13.832;2023-02-19T12:46:28;93330.09;;;13.28;50.84
12471;BME280;36499;46.484;13.832;2023-02-19T12:49:05;93335.53;;;13.44;50.96
12471;BME280;36499;46.484;13.832;2023-02-19T12:51:42;93321.38;;;13.34;50.84
12471;BME280;36499;46.484;13.832;2023-02-19T12:54:16;93318.38;;;13.60;50.23
12471;BME280;36499;46.484;13.832;2023-02-19T12:56:52;93318.69;;;13.52;49.75
12471;BME280;36499;46.484;13.832;2023-02-19T12:59:28;93312.13;;;13.61;49.37
12471;BME280;36499;46.484;13.832;2023-02-19T13:02:03;93303.94;;;13.69;49.55
12471;BME280;36499;46.484;13.832;2023-02-19T13:04:44;93295.50;;;13.79;49.39
12471;BME280;36499;46.484;13.832;2023-02-19T13:07:19;93301.66;;;13.73;49.07
12471;BME280;36499;46.484;13.832;2023-02-19T13:09:54;93289.69;;;13.77;49.19
12471;BME280;36499;46.484;13.832;2023-02-19T13:12:28;93286.72;;;13.97;48.98
12471;BME280;36499;46.484;13.832;2023-02-19T13:14:59;93292.44;;;14.05;48.47
12471;BME280;36499;46.484;13.832;2023-02-19T13:17:36;93284.56;;;13.93;48.85
12471;BME280;36499;46.484;13.832;2023-02-19T13:20:25;93284.09;;;13.97;48.36
12471;BME280;36499;46.484;13.832;2023-02-19T13:23:03;93280.25;;;14.11;48.52
12471;BME280;36499;46.484;13.832;2023-02-19T13:26:14;93289.81;;;14.17;48.72
12471;BME280;36499;46.484;13.832;2023-02-19T13:29:06;93273.72;;;14.25;48.34
12471;BME280;36499;46.484;13.832;2023-02-19T13:32:01;93281.72;;;14.18;48.21
12471;BME280;36499;46.484;13.832;2023-02-19T13:34:50;93277.16;;;14.25;47.88